Rechercher aéroport 
image banner adimage banner adimage banner ad
image banner ad

C80 - New Coalinga Muni

Situé à Coalinga, United States

ICAO - C80, IATA -

Données fournies par Airmate  

Information générale

Coordonnées: N36°9'44" W120°17'41"
Élévation : 625 feet MSL.
Variation magnétique : 15° East
Voir autres Aéroports à California

Données opérationnelles

Special qualification required
Heure actuelle UTC:
Heure actuelle locale:
Météo à : KNLC - Lemoore Nas (Reeves Fld) ( 36 km )
METAR: KNLC 292056Z VRB04KT 10SM FEW050 BKN130 BKN220 38/12 A2985 RMK AO2 SLP105 RH/19 T03830117 56020
TAF: TAF KNLC 2915/3015 31007KT 9999 SCT120 QNH2987INS TEMPO 2915/2920 VRB06KT FEW110 FM292100 36008KT 9999 FEW160 FEW220 QNH2982INS FM300000 31010G16KT 9999 FEW160 BKN230 QNH2979INS T39/2923Z T22/3013Z FS30067
Voir NOTAMs / SUP AIP / TFR affectant cet aéroport [VIEW]
Fréquences de communication: [VIEW]

Pistes:

Identifiant RWYQFULongueur (ft)Largeur (ft)SurfaceLDA (ft)
0112°247160OTHER
19191°247160OTHER
12130°5000100ASPH
30310°5000100ASPH

Coordonnées de l'aéroport

Adresse: Coalinga United States

Vue satellite de C80